sensor_id;sensor_type;location;lat;lon;timestamp;temperature;humidity
79187;SHT31;68762;51.980;5.646;2024-02-16T00:00:18;14.0;68.0
79187;SHT31;68762;51.980;5.646;2024-02-16T00:02:46;13.9;68.1
79187;SHT31;68762;51.980;5.646;2024-02-16T00:05:15;13.9;67.9
79187;SHT31;68762;51.980;5.646;2024-02-16T00:07:44;13.9;68.0
79187;SHT31;68762;51.980;5.646;2024-02-16T00:10:13;13.9;68.0
79187;SHT31;68762;51.980;5.646;2024-02-16T00:12:44;13.9;68.0
79187;SHT31;68762;51.980;5.646;2024-02-16T00:15:13;13.9;68.0
79187;SHT31;68762;51.980;5.646;2024-02-16T00:17:42;13.8;68.1
79187;SHT31;68762;51.980;5.646;2024-02-16T00:20:11;13.8;68.0
79187;SHT31;68762;51.980;5.646;2024-02-16T00:22:45;13.8;68.0
79187;SHT31;68762;51.980;5.646;2024-02-16T00:25:14;13.8;68.1
79187;SHT31;68762;51.980;5.646;2024-02-16T00:27:44;13.8;68.3
79187;SHT31;68762;51.980;5.646;2024-02-16T00:30:14;13.7;68.0
79187;SHT31;68762;51.980;5.646;2024-02-16T00:32:44;13.7;68.1
79187;SHT31;68762;51.980;5.646;2024-02-16T00:35:14;13.7;68.2
79187;SHT31;68762;51.980;5.646;2024-02-16T00:37:44;13.7;68.3
79187;SHT31;68762;51.980;5.646;2024-02-16T00:40:14;13.7;68.3
79187;SHT31;68762;51.980;5.646;2024-02-16T00:42:45;13.6;68.4
79187;SHT31;68762;51.980;5.646;2024-02-16T00:45:15;13.6;68.3
79187;SHT31;68762;51.980;5.646;2024-02-16T00:47:44;13.6;68.3
79187;SHT31;68762;51.980;5.646;2024-02-16T00:50:15;13.6;68.4
79187;SHT31;68762;51.980;5.646;2024-02-16T00:52:44;13.6;68.3
79187;SHT31;68762;51.980;5.646;2024-02-16T00:55:12;13.6;68.3
79187;SHT31;68762;51.980;5.646;2024-02-16T00:57:41;13.6;68.3
79187;SHT31;68762;51.980;5.646;2024-02-16T01:00:10;13.6;68.4
79187;SHT31;68762;51.980;5.646;2024-02-16T01:02:39;13.5;68.4
79187;SHT31;68762;51.980;5.646;2024-02-16T01:05:08;13.5;68.4
79187;SHT31;68762;51.980;5.646;2024-02-16T01:07:37;13.5;68.5
79187;SHT31;68762;51.980;5.646;2024-02-16T01:10:06;13.5;68.6
79187;SHT31;68762;51.980;5.646;2024-02-16T01:12:35;13.5;68.4
79187;SHT31;68762;51.980;5.646;2024-02-16T01:15:04;13.5;68.4
79187;SHT31;68762;51.980;5.646;2024-02-16T01:17:33;13.5;68.3
79187;SHT31;68762;51.980;5.646;2024-02-16T01:20:02;13.5;68.4
79187;SHT31;68762;51.980;5.646;2024-02-16T01:22:32;13.5;68.5
79187;SHT31;68762;51.980;5.646;2024-02-16T01:25:02;13.4;68.4
79187;SHT31;68762;51.980;5.646;2024-02-16T01:27:31;13.4;68.5
79187;SHT31;68762;51.980;5.646;2024-02-16T01:29:59;13.4;68.5
79187;SHT31;68762;51.980;5.646;2024-02-16T01:32:31;13.4;68.3
79187;SHT31;68762;51.980;5.646;2024-02-16T01:35:01;13.4;68.3
79187;SHT31;68762;51.980;5.646;2024-02-16T01:37:29;13.4;68.2
79187;SHT31;68762;51.980;5.646;2024-02-16T01:39:58;13.4;68.4
79187;SHT31;68762;51.980;5.646;2024-02-16T01:42:28;13.3;68.4
79187;SHT31;68762;51.980;5.646;2024-02-16T01:44:57;13.3;68.5
79187;SHT31;68762;51.980;5.646;2024-02-16T01:47:26;13.3;68.6
79187;SHT31;68762;51.980;5.646;2024-02-16T01:49:55;13.3;68.6
79187;SHT31;68762;51.980;5.646;2024-02-16T01:52:25;13.3;68.7
79187;SHT31;68762;51.980;5.646;2024-02-16T01:54:54;13.3;68.6
79187;SHT31;68762;51.980;5.646;2024-02-16T01:57:23;13.3;68.7
79187;SHT31;68762;51.980;5.646;2024-02-16T01:59:51;13.2;68.8
79187;SHT31;68762;51.980;5.646;2024-02-16T02:02:20;13.2;68.5
79187;SHT31;68762;51.980;5.646;2024-02-16T02:04:48;13.2;68.6
79187;SHT31;68762;51.980;5.646;2024-02-16T02:07:17;13.2;68.6
79187;SHT31;68762;51.980;5.646;2024-02-16T02:09:48;13.2;68.6
79187;SHT31;68762;51.980;5.646;2024-02-16T02:12:18;13.2;68.8
79187;SHT31;68762;51.980;5.646;2024-02-16T02:14:47;13.2;68.6
79187;SHT31;68762;51.980;5.646;2024-02-16T02:17:17;13.2;68.8
79187;SHT31;68762;51.980;5.646;2024-02-16T02:19:46;13.2;68.8
79187;SHT31;68762;51.980;5.646;2024-02-16T02:22:17;13.2;68.7
79187;SHT31;68762;51.980;5.646;2024-02-16T02:24:46;13.2;68.8
79187;SHT31;68762;51.980;5.646;2024-02-16T02:27:15;13.2;68.8
79187;SHT31;68762;51.980;5.646;2024-02-16T02:29:44;13.2;68.9
79187;SHT31;68762;51.980;5.646;2024-02-16T02:32:14;13.2;68.7
79187;SHT31;68762;51.980;5.646;2024-02-16T02:34:43;13.2;68.8
79187;SHT31;68762;51.980;5.646;2024-02-16T02:37:12;13.2;68.8
79187;SHT31;68762;51.980;5.646;2024-02-16T02:39:41;13.2;68.6
79187;SHT31;68762;51.980;5.646;2024-02-16T02:42:12;13.2;68.7
79187;SHT31;68762;51.980;5.646;2024-02-16T02:44:43;13.2;68.5
79187;SHT31;68762;51.980;5.646;2024-02-16T02:47:16;13.2;68.6
79187;SHT31;68762;51.980;5.646;2024-02-16T02:49:45;13.2;68.5
79187;SHT31;68762;51.980;5.646;2024-02-16T02:52:15;13.2;68.5
79187;SHT31;68762;51.980;5.646;2024-02-16T02:54:47;13.2;68.5
79187;SHT31;68762;51.980;5.646;2024-02-16T02:57:15;13.2;68.6
79187;SHT31;68762;51.980;5.646;2024-02-16T02:59:44;13.2;68.5
79187;SHT31;68762;51.980;5.646;2024-02-16T03:02:13;13.2;68.5
79187;SHT31;68762;51.980;5.646;2024-02-16T03:04:42;13.2;68.4
79187;SHT31;68762;51.980;5.646;2024-02-16T03:07:11;13.3;68.3
79187;SHT31;68762;51.980;5.646;2024-02-16T03:09:40;13.3;68.4
79187;SHT31;68762;51.980;5.646;2024-02-16T03:12:10;13.3;68.2
79187;SHT31;68762;51.980;5.646;2024-02-16T03:14:38;13.3;68.0
79187;SHT31;68762;51.980;5.646;2024-02-16T03:17:08;13.3;68.1
79187;SHT31;68762;51.980;5.646;2024-02-16T03:19:37;13.3;68.1
79187;SHT31;68762;51.980;5.646;2024-02-16T03:22:05;13.3;68.0
79187;SHT31;68762;51.980;5.646;2024-02-16T03:24:34;13.3;68.0
79187;SHT31;68762;51.980;5.646;2024-02-16T03:27:02;13.3;67.8
79187;SHT31;68762;51.980;5.646;2024-02-16T03:29:31;13.3;67.8
79187;SHT31;68762;51.980;5.646;2024-02-16T03:32:00;13.3;67.7
79187;SHT31;68762;51.980;5.646;2024-02-16T03:34:30;13.3;67.7
79187;SHT31;68762;51.980;5.646;2024-02-16T03:36:58;13.3;67.6
79187;SHT31;68762;51.980;5.646;2024-02-16T03:39:30;13.3;67.6
79187;SHT31;68762;51.980;5.646;2024-02-16T03:41:58;13.3;67.7
79187;SHT31;68762;51.980;5.646;2024-02-16T03:44:29;13.3;67.6
79187;SHT31;68762;51.980;5.646;2024-02-16T03:46:57;13.3;67.7
79187;SHT31;68762;51.980;5.646;2024-02-16T03:49:27;13.2;67.8
79187;SHT31;68762;51.980;5.646;2024-02-16T03:51:56;13.2;67.9
79187;SHT31;68762;51.980;5.646;2024-02-16T03:54:25;13.2;67.7
79187;SHT31;68762;51.980;5.646;2024-02-16T03:56:54;13.2;67.8
79187;SHT31;68762;51.980;5.646;2024-02-16T03:59:24;13.2;67.7
79187;SHT31;68762;51.980;5.646;2024-02-16T04:01:53;13.2;67.8
79187;SHT31;68762;51.980;5.646;2024-02-16T04:04:23;13.1;67.9
79187;SHT31;68762;51.980;5.646;2024-02-16T04:06:53;13.1;67.9
79187;SHT31;68762;51.980;5.646;2024-02-16T04:09:22;13.1;68.0
79187;SHT31;68762;51.980;5.646;2024-02-16T04:11:50;13.1;68.1
79187;SHT31;68762;51.980;5.646;2024-02-16T04:14:19;13.1;68.0
79187;SHT31;68762;51.980;5.646;2024-02-16T04:16:47;13.1;67.9
79187;SHT31;68762;51.980;5.646;2024-02-16T04:19:16;13.1;68.0
79187;SHT31;68762;51.980;5.646;2024-02-16T04:21:44;13.1;68.0
79187;SHT31;68762;51.980;5.646;2024-02-16T04:24:13;13.1;67.8
79187;SHT31;68762;51.980;5.646;2024-02-16T04:26:42;13.1;67.9
79187;SHT31;68762;51.980;5.646;2024-02-16T04:29:10;13.1;67.7
79187;SHT31;68762;51.980;5.646;2024-02-16T04:31:41;13.1;67.8
79187;SHT31;68762;51.980;5.646;2024-02-16T04:34:11;13.1;67.7
79187;SHT31;68762;51.980;5.646;2024-02-16T04:36:40;13.1;67.8
79187;SHT31;68762;51.980;5.646;2024-02-16T04:39:10;13.2;67.7
79187;SHT31;68762;51.980;5.646;2024-02-16T04:41:38;13.2;67.5
79187;SHT31;68762;51.980;5.646;2024-02-16T04:44:07;13.2;67.6
79187;SHT31;68762;51.980;5.646;2024-02-16T04:46:36;13.2;67.4
79187;SHT31;68762;51.980;5.646;2024-02-16T04:49:04;13.2;67.4
79187;SHT31;68762;51.980;5.646;2024-02-16T04:51:33;13.2;67.4
79187;SHT31;68762;51.980;5.646;2024-02-16T04:54:02;13.3;67.3
79187;SHT31;68762;51.980;5.646;2024-02-16T04:56:30;13.3;67.4
79187;SHT31;68762;51.980;5.646;2024-02-16T04:58:59;13.3;67.3
79187;SHT31;68762;51.980;5.646;2024-02-16T05:01:28;13.3;67.2
79187;SHT31;68762;51.980;5.646;2024-02-16T05:03:58;13.4;67.1
79187;SHT31;68762;51.980;5.646;2024-02-16T05:06:28;13.4;67.0
79187;SHT31;68762;51.980;5.646;2024-02-16T05:08:58;13.4;67.0
79187;SHT31;68762;51.980;5.646;2024-02-16T05:11:26;13.4;67.1
79187;SHT31;68762;51.980;5.646;2024-02-16T05:13:56;13.4;67.0
79187;SHT31;68762;51.980;5.646;2024-02-16T05:16:25;13.4;66.9
79187;SHT31;68762;51.980;5.646;2024-02-16T05:18:55;13.5;66.9
79187;SHT31;68762;51.980;5.646;2024-02-16T05:21:24;13.5;66.9
79187;SHT31;68762;51.980;5.646;2024-02-16T05:23:53;13.5;66.8
79187;SHT31;68762;51.980;5.646;2024-02-16T05:26:21;13.5;66.9
79187;SHT31;68762;51.980;5.646;2024-02-16T05:28:50;13.5;66.9
79187;SHT31;68762;51.980;5.646;2024-02-16T05:31:19;13.5;66.8
79187;SHT31;68762;51.980;5.646;2024-02-16T05:33:49;13.5;66.9
79187;SHT31;68762;51.980;5.646;2024-02-16T05:36:19;13.6;66.8
79187;SHT31;68762;51.980;5.646;2024-02-16T05:38:51;13.6;66.8
79187;SHT31;68762;51.980;5.646;2024-02-16T05:41:22;13.6;66.8
79187;SHT31;68762;51.980;5.646;2024-02-16T05:43:51;13.6;66.9
79187;SHT31;68762;51.980;5.646;2024-02-16T05:46:19;13.6;66.9
79187;SHT31;68762;51.980;5.646;2024-02-16T05:48:48;13.6;66.8
79187;SHT31;68762;51.980;5.646;2024-02-16T05:51:17;13.6;66.8
79187;SHT31;68762;51.980;5.646;2024-02-16T05:53:45;13.6;66.8
79187;SHT31;68762;51.980;5.646;2024-02-16T05:56:14;13.6;66.8
79187;SHT31;68762;51.980;5.646;2024-02-16T05:58:42;13.6;66.9
79187;SHT31;68762;51.980;5.646;2024-02-16T06:01:11;13.6;66.8
79187;SHT31;68762;51.980;5.646;2024-02-16T06:03:43;13.6;66.9
79187;SHT31;68762;51.980;5.646;2024-02-16T06:06:12;13.7;66.8
79187;SHT31;68762;51.980;5.646;2024-02-16T06:08:40;13.7;66.9
79187;SHT31;68762;51.980;5.646;2024-02-16T06:11:09;13.7;67.0
79187;SHT31;68762;51.980;5.646;2024-02-16T06:13:38;13.7;66.9
79187;SHT31;68762;51.980;5.646;2024-02-16T06:16:08;13.7;66.9
79187;SHT31;68762;51.980;5.646;2024-02-16T06:18:37;13.7;67.0
79187;SHT31;68762;51.980;5.646;2024-02-16T06:21:06;13.7;67.1
79187;SHT31;68762;51.980;5.646;2024-02-16T06:23:34;13.7;67.1
79187;SHT31;68762;51.980;5.646;2024-02-16T06:26:06;13.7;67.0
79187;SHT31;68762;51.980;5.646;2024-02-16T06:28:35;13.7;67.1
79187;SHT31;68762;51.980;5.646;2024-02-16T06:31:03;13.7;67.1
79187;SHT31;68762;51.980;5.646;2024-02-16T06:33:32;13.8;67.0
79187;SHT31;68762;51.980;5.646;2024-02-16T06:36:01;13.8;67.0
79187;SHT31;68762;51.980;5.646;2024-02-16T06:38:30;13.8;67.0
79187;SHT31;68762;51.980;5.646;2024-02-16T06:40:58;13.8;67.0
79187;SHT31;68762;51.980;5.646;2024-02-16T06:43:27;13.8;67.1
79187;SHT31;68762;51.980;5.646;2024-02-16T06:45:55;13.8;67.2
79187;SHT31;68762;51.980;5.646;2024-02-16T06:48:25;13.8;67.2
79187;SHT31;68762;51.980;5.646;2024-02-16T06:50:54;13.8;67.3
79187;SHT31;68762;51.980;5.646;2024-02-16T06:53:23;13.8;67.2
79187;SHT31;68762;51.980;5.646;2024-02-16T06:55:51;13.8;67.3
79187;SHT31;68762;51.980;5.646;2024-02-16T06:58:21;13.8;67.4
79187;SHT31;68762;51.980;5.646;2024-02-16T07:00:49;13.8;67.4
79187;SHT31;68762;51.980;5.646;2024-02-16T07:03:18;13.8;67.4
79187;SHT31;68762;51.980;5.646;2024-02-16T07:05:46;13.8;67.6
79187;SHT31;68762;51.980;5.646;2024-02-16T07:08:15;13.8;67.7
79187;SHT31;68762;51.980;5.646;2024-02-16T07:10:44;13.8;67.7
79187;SHT31;68762;51.980;5.646;2024-02-16T07:13:14;13.8;67.7
79187;SHT31;68762;51.980;5.646;2024-02-16T07:15:44;13.8;67.9
79187;SHT31;68762;51.980;5.646;2024-02-16T07:18:12;13.8;67.9
79187;SHT31;68762;51.980;5.646;2024-02-16T07:20:42;13.8;67.9
79187;SHT31;68762;51.980;5.646;2024-02-16T07:23:10;13.8;68.1
79187;SHT31;68762;51.980;5.646;2024-02-16T07:25:39;13.8;68.1
79187;SHT31;68762;51.980;5.646;2024-02-16T07:28:08;13.8;68.3
79187;SHT31;68762;51.980;5.646;2024-02-16T07:30:37;13.9;68.3
79187;SHT31;68762;51.980;5.646;2024-02-16T07:33:07;13.9;68.3
79187;SHT31;68762;51.980;5.646;2024-02-16T07:35:36;13.9;68.3
79187;SHT31;68762;51.980;5.646;2024-02-16T07:38:04;13.9;68.4
79187;SHT31;68762;51.980;5.646;2024-02-16T07:40:35;13.9;68.4
79187;SHT31;68762;51.980;5.646;2024-02-16T07:43:04;13.9;68.4
79187;SHT31;68762;51.980;5.646;2024-02-16T07:45:34;13.9;68.5
79187;SHT31;68762;51.980;5.646;2024-02-16T07:48:04;14.0;68.5
79187;SHT31;68762;51.980;5.646;2024-02-16T07:50:34;14.0;68.5
79187;SHT31;68762;51.980;5.646;2024-02-16T07:53:02;14.0;68.6
79187;SHT31;68762;51.980;5.646;2024-02-16T07:55:31;14.0;68.6
79187;SHT31;68762;51.980;5.646;2024-02-16T07:58:00;14.0;68.6
79187;SHT31;68762;51.980;5.646;2024-02-16T08:00:29;14.1;68.8
79187;SHT31;68762;51.980;5.646;2024-02-16T08:02:58;14.1;68.8
79187;SHT31;68762;51.980;5.646;2024-02-16T08:05:27;14.1;68.9
79187;SHT31;68762;51.980;5.646;2024-02-16T08:07:55;14.1;69.1
79187;SHT31;68762;51.980;5.646;2024-02-16T08:10:24;14.1;69.2
79187;SHT31;68762;51.980;5.646;2024-02-16T08:12:55;14.2;69.2
79187;SHT31;68762;51.980;5.646;2024-02-16T08:15:25;14.2;69.3
79187;SHT31;68762;51.980;5.646;2024-02-16T08:17:55;14.2;69.2
79187;SHT31;68762;51.980;5.646;2024-02-16T08:20:26;14.2;69.2
79187;SHT31;68762;51.980;5.646;2024-02-16T08:22:56;14.3;69.1
79187;SHT31;68762;51.980;5.646;2024-02-16T08:25:25;14.3;69.1
79187;SHT31;68762;51.980;5.646;2024-02-16T08:27:56;14.3;69.2
79187;SHT31;68762;51.980;5.646;2024-02-16T08:30:25;14.3;69.2
79187;SHT31;68762;51.980;5.646;2024-02-16T08:32:53;14.4;69.2
79187;SHT31;68762;51.980;5.646;2024-02-16T08:35:22;14.4;69.3
79187;SHT31;68762;51.980;5.646;2024-02-16T08:37:51;14.4;69.1
79187;SHT31;68762;51.980;5.646;2024-02-16T08:40:21;14.4;69.2
79187;SHT31;68762;51.980;5.646;2024-02-16T08:42:50;14.5;69.1
79187;SHT31;68762;51.980;5.646;2024-02-16T08:45:19;14.5;69.2
79187;SHT31;68762;51.980;5.646;2024-02-16T08:47:47;14.5;69.3
79187;SHT31;68762;51.980;5.646;2024-02-16T08:50:16;14.6;69.1
79187;SHT31;68762;51.980;5.646;2024-02-16T08:52:45;14.6;69.0
79187;SHT31;68762;51.980;5.646;2024-02-16T08:55:14;14.6;69.1
79187;SHT31;68762;51.980;5.646;2024-02-16T08:57:42;14.6;69.1
79187;SHT31;68762;51.980;5.646;2024-02-16T09:00:12;14.7;69.0
79187;SHT31;68762;51.980;5.646;2024-02-16T09:02:43;14.7;68.9
79187;SHT31;68762;51.980;5.646;2024-02-16T09:05:12;14.7;69.0
79187;SHT31;68762;51.980;5.646;2024-02-16T09:07:43;14.7;69.0
79187;SHT31;68762;51.980;5.646;2024-02-16T09:10:13;14.8;69.0
79187;SHT31;68762;51.980;5.646;2024-02-16T09:12:44;14.8;69.3
79187;SHT31;68762;51.980;5.646;2024-02-16T09:15:13;14.8;69.2
79187;SHT31;68762;51.980;5.646;2024-02-16T09:17:42;14.9;69.2
79187;SHT31;68762;51.980;5.646;2024-02-16T09:20:11;14.9;68.9
79187;SHT31;68762;51.980;5.646;2024-02-16T09:22:41;15.0;69.0
79187;SHT31;68762;51.980;5.646;2024-02-16T09:25:13;15.0;68.7
79187;SHT31;68762;51.980;5.646;2024-02-16T09:27:42;15.0;68.7
79187;SHT31;68762;51.980;5.646;2024-02-16T09:30:12;15.1;68.9
79187;SHT31;68762;51.980;5.646;2024-02-16T09:32:41;15.1;69.0
79187;SHT31;68762;51.980;5.646;2024-02-16T09:35:12;15.1;69.3
79187;SHT31;68762;51.980;5.646;2024-02-16T09:37:42;15.1;69.9
79187;SHT31;68762;51.980;5.646;2024-02-16T09:40:13;15.1;70.4
79187;SHT31;68762;51.980;5.646;2024-02-16T09:42:49;15.0;71.2
79187;SHT31;68762;51.980;5.646;2024-02-16T09:45:18;14.9;71.6
79187;SHT31;68762;51.980;5.646;2024-02-16T09:47:48;14.9;72.0
79187;SHT31;68762;51.980;5.646;2024-02-16T09:50:18;14.8;72.6
79187;SHT31;68762;51.980;5.646;2024-02-16T09:52:49;14.8;72.6
79187;SHT31;68762;51.980;5.646;2024-02-16T09:55:18;14.8;72.7
79187;SHT31;68762;51.980;5.646;2024-02-16T09:57:46;14.8;72.9
79187;SHT31;68762;51.980;5.646;2024-02-16T10:00:16;14.8;72.7
79187;SHT31;68762;51.980;5.646;2024-02-16T10:02:46;14.8;72.6
79187;SHT31;68762;51.980;5.646;2024-02-16T10:05:17;14.8;72.5
79187;SHT31;68762;51.980;5.646;2024-02-16T10:07:46;14.8;72.6
79187;SHT31;68762;51.980;5.646;2024-02-16T10:10:22;14.8;72.5
79187;SHT31;68762;51.980;5.646;2024-02-16T10:13:02;14.9;72.0
79187;SHT31;68762;51.980;5.646;2024-02-16T10:15:32;14.9;72.2
79187;SHT31;68762;51.980;5.646;2024-02-16T10:18:03;14.9;71.8
79187;SHT31;68762;51.980;5.646;2024-02-16T10:20:33;14.9;71.8
79187;SHT31;68762;51.980;5.646;2024-02-16T10:23:09;15.0;71.9
79187;SHT31;68762;51.980;5.646;2024-02-16T10:25:39;15.0;71.5
79187;SHT31;68762;51.980;5.646;2024-02-16T10:28:10;15.0;71.8
79187;SHT31;68762;51.980;5.646;2024-02-16T10:30:41;15.0;71.6
79187;SHT31;68762;51.980;5.646;2024-02-16T10:33:11;15.0;71.7
79187;SHT31;68762;51.980;5.646;2024-02-16T10:35:41;15.0;71.7
79187;SHT31;68762;51.980;5.646;2024-02-16T10:38:12;15.0;71.6
79187;SHT31;68762;51.980;5.646;2024-02-16T10:40:41;15.0;71.4
79187;SHT31;68762;51.980;5.646;2024-02-16T10:43:15;15.0;71.6
79187;SHT31;68762;51.980;5.646;2024-02-16T10:45:44;15.0;71.5
79187;SHT31;68762;51.980;5.646;2024-02-16T10:48:15;15.0;71.7
79187;SHT31;68762;51.980;5.646;2024-02-16T10:50:46;15.1;71.9
79187;SHT31;68762;51.980;5.646;2024-02-16T10:53:22;15.1;72.1
79187;SHT31;68762;51.980;5.646;2024-02-16T10:55:52;15.1;72.5
79187;SHT31;68762;51.980;5.646;2024-02-16T10:58:21;15.1;72.9
79187;SHT31;68762;51.980;5.646;2024-02-16T11:00:51;15.0;73.2
79187;SHT31;68762;51.980;5.646;2024-02-16T11:03:22;15.0;73.6
79187;SHT31;68762;51.980;5.646;2024-02-16T11:05:53;14.9;73.8
79187;SHT31;68762;51.980;5.646;2024-02-16T11:08:25;14.8;74.3
79187;SHT31;68762;51.980;5.646;2024-02-16T11:11:01;14.8;74.6
79187;SHT31;68762;51.980;5.646;2024-02-16T11:13:33;14.7;74.8
79187;SHT31;68762;51.980;5.646;2024-02-16T11:16:06;14.7;75.1
79187;SHT31;68762;51.980;5.646;2024-02-16T11:18:41;14.7;75.3
79187;SHT31;68762;51.980;5.646;2024-02-16T11:21:14;14.6;75.5
79187;SHT31;68762;51.980;5.646;2024-02-16T11:23:44;14.6;75.9
79187;SHT31;68762;51.980;5.646;2024-02-16T11:26:17;14.6;76.0
79187;SHT31;68762;51.980;5.646;2024-02-16T11:28:46;14.5;76.2
79187;SHT31;68762;51.980;5.646;2024-02-16T11:31:17;14.5;76.5
79187;SHT31;68762;51.980;5.646;2024-02-16T11:33:48;14.5;76.6
79187;SHT31;68762;51.980;5.646;2024-02-16T11:36:17;14.4;77.0
79187;SHT31;68762;51.980;5.646;2024-02-16T11:38:47;14.4;77.2
79187;SHT31;68762;51.980;5.646;2024-02-16T11:41:15;14.4;77.0
79187;SHT31;68762;51.980;5.646;2024-02-16T11:43:44;14.4;77.0
79187;SHT31;68762;51.980;5.646;2024-02-16T11:46:15;14.3;77.3
79187;SHT31;68762;51.980;5.646;2024-02-16T11:48:44;14.3;77.6
79187;SHT31;68762;51.980;5.646;2024-02-16T11:51:15;14.3;77.7
79187;SHT31;68762;51.980;5.646;2024-02-16T11:53:45;14.3;77.6
79187;SHT31;68762;51.980;5.646;2024-02-16T11:56:23;14.2;77.9
79187;SHT31;68762;51.980;5.646;2024-02-16T11:58:52;14.2;78.1
79187;SHT31;68762;51.980;5.646;2024-02-16T12:01:21;14.2;78.1
79187;SHT31;68762;51.980;5.646;2024-02-16T12:03:51;14.2;78.3
79187;SHT31;68762;51.980;5.646;2024-02-16T12:06:22;14.2;78.3
79187;SHT31;68762;51.980;5.646;2024-02-16T12:08:52;14.2;78.5
79187;SHT31;68762;51.980;5.646;2024-02-16T12:11:20;14.2;78.5
79187;SHT31;68762;51.980;5.646;2024-02-16T12:13:54;14.1;78.5
79187;SHT31;68762;51.980;5.646;2024-02-16T12:16:22;14.1;78.6
79187;SHT31;68762;51.980;5.646;2024-02-16T12:19:04;14.1;78.6
79187;SHT31;68762;51.980;5.646;2024-02-16T12:21:32;14.1;78.8
79187;SHT31;68762;51.980;5.646;2024-02-16T12:24:02;14.1;78.9
79187;SHT31;68762;51.980;5.646;2024-02-16T12:26:30;14.1;78.8
79187;SHT31;68762;51.980;5.646;2024-02-16T12:28:59;14.1;78.8
79187;SHT31;68762;51.980;5.646;2024-02-16T12:31:29;14.1;78.8
79187;SHT31;68762;51.980;5.646;2024-02-16T12:33:58;14.1;78.7
79187;SHT31;68762;51.980;5.646;2024-02-16T12:36:27;14.1;78.7
79187;SHT31;68762;51.980;5.646;2024-02-16T12:38:56;14.1;78.3
79187;SHT31;68762;51.980;5.646;2024-02-16T12:41:24;14.1;78.3
79187;SHT31;68762;51.980;5.646;2024-02-16T12:43:53;14.1;78.5
79187;SHT31;68762;51.980;5.646;2024-02-16T12:46:21;14.1;78.7
79187;SHT31;68762;51.980;5.646;2024-02-16T12:48:51;14.1;78.3
79187;SHT31;68762;51.980;5.646;2024-02-16T12:51:20;14.1;78.4
79187;SHT31;68762;51.980;5.646;2024-02-16T12:53:49;14.1;78.7
79187;SHT31;68762;51.980;5.646;2024-02-16T12:56:19;14.1;78.5
79187;SHT31;68762;51.980;5.646;2024-02-16T12:58:50;14.1;77.9
79187;SHT31;68762;51.980;5.646;2024-02-16T13:01:19;14.1;77.9
79187;SHT31;68762;51.980;5.646;2024-02-16T13:03:50;14.1;78.1
79187;SHT31;68762;51.980;5.646;2024-02-16T13:06:19;14.1;78.2
79187;SHT31;68762;51.980;5.646;2024-02-16T13:08:48;14.1;78.3
79187;SHT31;68762;51.980;5.646;2024-02-16T13:11:17;14.1;78.4
79187;SHT31;68762;51.980;5.646;2024-02-16T13:13:46;14.1;78.6
79187;SHT31;68762;51.980;5.646;2024-02-16T13:16:15;14.1;78.7
79187;SHT31;68762;51.980;5.646;2024-02-16T13:18:44;14.1;78.7
79187;SHT31;68762;51.980;5.646;2024-02-16T13:21:13;14.1;78.8
79187;SHT31;68762;51.980;5.646;2024-02-16T13:23:42;14.1;78.7
79187;SHT31;68762;51.980;5.646;2024-02-16T13:26:11;14.1;79.1
79187;SHT31;68762;51.980;5.646;2024-02-16T13:28:39;14.1;78.8
79187;SHT31;68762;51.980;5.646;2024-02-16T13:31:08;14.2;78.6
79187;SHT31;68762;51.980;5.646;2024-02-16T13:33:37;14.2;78.6
79187;SHT31;68762;51.980;5.646;2024-02-16T13:36:07;14.2;78.5
79187;SHT31;68762;51.980;5.646;2024-02-16T13:38:36;14.2;78.1
79187;SHT31;68762;51.980;5.646;2024-02-16T13:41:06;14.3;78.1
79187;SHT31;68762;51.980;5.646;2024-02-16T13:43:35;14.3;78.4
79187;SHT31;68762;51.980;5.646;2024-02-16T13:46:04;14.3;78.1
79187;SHT31;68762;51.980;5.646;2024-02-16T13:48:32;14.4;77.9
79187;SHT31;68762;51.980;5.646;2024-02-16T13:51:03;14.4;77.7
79187;SHT31;68762;51.980;5.646;2024-02-16T13:53:33;14.4;77.6
79187;SHT31;68762;51.980;5.646;2024-02-16T13:56:02;14.5;77.4
79187;SHT31;68762;51.980;5.646;2024-02-16T13:58:32;14.5;77.0
79187;SHT31;68762;51.980;5.646;2024-02-16T14:01:01;14.5;77.0
79187;SHT31;68762;51.980;5.646;2024-02-16T14:03:32;14.6;76.5
79187;SHT31;68762;51.980;5.646;2024-02-16T14:06:04;14.6;75.9
79187;SHT31;68762;51.980;5.646;2024-02-16T14:08:34;14.6;76.4
79187;SHT31;68762;51.980;5.646;2024-02-16T14:11:03;14.7;76.6
79187;SHT31;68762;51.980;5.646;2024-02-16T14:13:31;14.7;75.3
79187;SHT31;68762;51.980;5.646;2024-02-16T14:16:00;14.7;75.4
79187;SHT31;68762;51.980;5.646;2024-02-16T14:18:29;14.8;74.9
79187;SHT31;68762;51.980;5.646;2024-02-16T14:20:59;14.8;75.1
79187;SHT31;68762;51.980;5.646;2024-02-16T14:23:29;14.8;74.7
79187;SHT31;68762;51.980;5.646;2024-02-16T14:25:58;14.9;74.3
79187;SHT31;68762;51.980;5.646;2024-02-16T14:28:27;14.9;74.5
79187;SHT31;68762;51.980;5.646;2024-02-16T14:30:56;14.9;74.3
79187;SHT31;68762;51.980;5.646;2024-02-16T14:33:24;14.9;73.7
79187;SHT31;68762;51.980;5.646;2024-02-16T14:35:53;14.9;73.7
79187;SHT31;68762;51.980;5.646;2024-02-16T14:38:21;14.9;73.5
79187;SHT31;68762;51.980;5.646;2024-02-16T14:40:50;15.0;73.1
79187;SHT31;68762;51.980;5.646;2024-02-16T14:43:19;15.0;72.9
79187;SHT31;68762;51.980;5.646;2024-02-16T14:45:47;15.0;73.2
79187;SHT31;68762;51.980;5.646;2024-02-16T14:48:16;15.0;73.4
79187;SHT31;68762;51.980;5.646;2024-02-16T14:50:44;15.0;73.3
79187;SHT31;68762;51.980;5.646;2024-02-16T14:53:14;15.0;73.2
79187;SHT31;68762;51.980;5.646;2024-02-16T14:55:43;15.0;73.0
79187;SHT31;68762;51.980;5.646;2024-02-16T14:58:13;15.0;72.6
79187;SHT31;68762;51.980;5.646;2024-02-16T15:00:41;15.0;73.2
79187;SHT31;68762;51.980;5.646;2024-02-16T15:03:10;15.0;72.9
79187;SHT31;68762;51.980;5.646;2024-02-16T15:05:41;15.0;73.0
79187;SHT31;68762;51.980;5.646;2024-02-16T15:08:09;15.0;73.3
79187;SHT31;68762;51.980;5.646;2024-02-16T15:10:40;15.0;72.7
79187;SHT31;68762;51.980;5.646;2024-02-16T15:13:11;15.0;72.3
79187;SHT31;68762;51.980;5.646;2024-02-16T15:15:39;15.0;71.9
79187;SHT31;68762;51.980;5.646;2024-02-16T15:18:08;15.0;71.7
79187;SHT31;68762;51.980;5.646;2024-02-16T15:20:37;15.0;71.8
79187;SHT31;68762;51.980;5.646;2024-02-16T15:23:07;15.0;71.7
79187;SHT31;68762;51.980;5.646;2024-02-16T15:25:37;15.0;71.7
79187;SHT31;68762;51.980;5.646;2024-02-16T15:28:06;15.0;71.0
79187;SHT31;68762;51.980;5.646;2024-02-16T15:30:35;15.0;71.3
79187;SHT31;68762;51.980;5.646;2024-02-16T15:33:03;15.0;71.5
79187;SHT31;68762;51.980;5.646;2024-02-16T15:35:33;15.0;71.5
79187;SHT31;68762;51.980;5.646;2024-02-16T15:38:01;14.9;71.8
79187;SHT31;68762;51.980;5.646;2024-02-16T15:40:30;14.9;72.1
79187;SHT31;68762;51.980;5.646;2024-02-16T15:43:02;14.9;71.5
79187;SHT31;68762;51.980;5.646;2024-02-16T15:45:32;14.9;71.6
79187;SHT31;68762;51.980;5.646;2024-02-16T15:48:06;14.9;71.9
79187;SHT31;68762;51.980;5.646;2024-02-16T15:50:36;14.9;71.4
79187;SHT31;68762;51.980;5.646;2024-02-16T15:53:05;14.9;71.6
79187;SHT31;68762;51.980;5.646;2024-02-16T15:55:34;14.9;71.9
79187;SHT31;68762;51.980;5.646;2024-02-16T15:58:03;14.9;71.6
79187;SHT31;68762;51.980;5.646;2024-02-16T16:00:31;14.9;71.6
79187;SHT31;68762;51.980;5.646;2024-02-16T16:03:00;14.9;71.6
79187;SHT31;68762;51.980;5.646;2024-02-16T16:05:28;15.0;72.0
79187;SHT31;68762;51.980;5.646;2024-02-16T16:08:00;15.0;72.2
79187;SHT31;68762;51.980;5.646;2024-02-16T16:10:29;15.0;71.8
79187;SHT31;68762;51.980;5.646;2024-02-16T16:12:57;15.0;71.7
79187;SHT31;68762;51.980;5.646;2024-02-16T16:15:28;15.0;72.0